createdAt,value
2019-03-25T00:01:52.097Z,54.76
2019-03-25T00:06:56.869Z,54.79
2019-03-25T00:12:01.639Z,54.41
2019-03-25T00:17:06.408Z,54.37
2019-03-25T00:22:11.163Z,54.86
2019-03-25T00:27:15.934Z,55.53
2019-03-25T00:32:20.705Z,56.09
2019-03-25T00:37:25.474Z,56.89
2019-03-25T00:42:30.235Z,57.05
2019-03-25T00:47:35.001Z,57.08
2019-03-25T00:52:39.865Z,56.38
2019-03-25T00:57:45.185Z,56.64
2019-03-25T01:02:49.950Z,56.05
2019-03-25T01:07:54.731Z,56.28
2019-03-25T01:12:59.517Z,56.41
2019-03-25T01:18:04.289Z,56.67
2019-03-25T01:23:09.051Z,57.08
2019-03-25T01:28:13.925Z,56.79
2019-03-25T01:33:18.693Z,57.44
2019-03-25T01:38:23.459Z,57.76
2019-03-25T01:43:28.381Z,58.06
2019-03-25T01:48:33.148Z,58.25
2019-03-25T01:53:37.906Z,58.80
2019-03-25T01:58:42.678Z,59.38
2019-03-25T02:03:47.564Z,59.27
2019-03-25T02:08:52.366Z,60.59
2019-03-25T02:13:57.336Z,61.17
2019-03-25T02:19:02.220Z,61.67
2019-03-25T02:24:06.998Z,62.16
2019-03-25T02:29:11.761Z,62.20
2019-03-25T02:34:16.529Z,62.58
2019-03-25T02:39:21.288Z,62.06
2019-03-25T02:44:26.063Z,61.54
2019-03-25T02:49:30.870Z,62.48
2019-03-25T02:54:35.752Z,63.25
2019-03-25T02:59:40.550Z,63.04
2019-03-25T03:04:45.551Z,62.73
2019-03-25T03:09:50.324Z,62.41
2019-03-25T03:14:55.457Z,62.79
2019-03-25T03:20:00.590Z,62.53
2019-03-25T03:25:05.551Z,62.24
2019-03-25T03:30:10.662Z,62.27
2019-03-25T03:35:15.427Z,62.41
2019-03-25T03:40:20.305Z,62.15
2019-03-25T03:45:25.071Z,62.16
2019-03-25T03:50:30.062Z,62.09
2019-03-25T03:55:37.273Z,61.84
2019-03-25T04:00:42.015Z,61.90
2019-03-25T04:05:46.777Z,61.87
2019-03-25T04:10:51.646Z,61.85
2019-03-25T04:15:56.418Z,61.85
2019-03-25T04:21:01.191Z,62.38
2019-03-25T04:26:05.949Z,62.42
2019-03-25T04:31:10.904Z,62.80
2019-03-25T04:36:15.654Z,62.98
2019-03-25T04:41:20.423Z,62.98
2019-03-25T04:46:25.193Z,63.24
2019-03-25T04:51:29.962Z,63.37
2019-03-25T04:56:39.694Z,63.13
2019-03-25T05:01:42.934Z,63.38
2019-03-25T05:06:48.716Z,63.03
2019-03-25T05:11:53.482Z,62.28
2019-03-25T05:16:58.348Z,61.85
2019-03-25T05:22:03.211Z,62.07
2019-03-25T05:27:07.975Z,62.12
2019-03-25T05:32:12.752Z,62.18
2019-03-25T05:37:17.514Z,62.32
2019-03-25T05:42:22.290Z,62.38
2019-03-25T05:47:27.074Z,62.96
2019-03-25T05:52:31.833Z,64.37
2019-03-25T05:57:36.610Z,65.85
2019-03-25T06:02:41.368Z,67.93
2019-03-25T06:07:46.126Z,71.85
2019-03-25T06:12:50.888Z,74.43
2019-03-25T06:17:55.655Z,76.12
2019-03-25T06:23:00.426Z,77.16
2019-03-25T06:28:05.197Z,77.38
2019-03-25T06:33:12.610Z,76.76
2019-03-25T06:38:16.571Z,76.58
2019-03-25T06:43:21.330Z,77.47
2019-03-25T06:48:26.090Z,78.55
2019-03-25T06:53:30.870Z,80.72
2019-03-25T06:58:35.662Z,81.61
2019-03-25T07:03:40.922Z,81.25
2019-03-25T07:08:45.870Z,81.85
2019-03-25T07:13:50.749Z,81.89
2019-03-25T07:18:55.704Z,80.91
2019-03-25T07:24:00.478Z,80.74
2019-03-25T07:29:05.276Z,81.64
2019-03-25T07:34:10.057Z,81.34
2019-03-25T07:39:14.939Z,81.11
2019-03-25T07:44:19.812Z,81.01
2019-03-25T07:49:24.588Z,81.53
2019-03-25T07:54:29.361Z,80.35
2019-03-25T07:59:34.567Z,80.06
2019-03-25T08:04:39.395Z,80.56
2019-03-25T08:09:44.316Z,80.65
2019-03-25T08:14:49.217Z,79.82
2019-03-25T08:19:54.164Z,79.10
2019-03-25T08:24:58.962Z,79.94
2019-03-25T08:30:03.868Z,78.78
2019-03-25T08:35:08.632Z,78.06
2019-03-25T08:40:13.721Z,76.93
2019-03-25T08:45:18.508Z,76.48
2019-03-25T08:50:23.375Z,76.62
2019-03-25T08:55:28.240Z,76.95
2019-03-25T09:00:33.004Z,75.20
2019-03-25T09:05:37.761Z,75.71
2019-03-25T09:10:42.515Z,74.29
2019-03-25T09:15:47.273Z,74.17
2019-03-25T09:20:52.033Z,75.32
2019-03-25T09:25:56.922Z,74.89
2019-03-25T09:31:11.991Z,74.67
2019-03-25T09:36:18.643Z,74.08
2019-03-25T09:41:23.515Z,73.43
2019-03-25T09:46:28.281Z,72.01
2019-03-25T09:51:33.048Z,70.55
2019-03-25T09:56:37.809Z,66.94
2019-03-25T10:01:42.587Z,67.80
2019-03-25T10:06:47.359Z,67.45
2019-03-25T10:11:52.236Z,68.20
2019-03-25T10:16:57.011Z,68.03
2019-03-25T10:22:01.759Z,67.10
2019-03-25T10:27:06.527Z,65.91
2019-03-25T10:32:11.407Z,64.96
2019-03-25T10:37:16.178Z,65.60
2019-03-25T10:42:20.957Z,66.45
2019-03-25T10:47:25.728Z,66.58
2019-03-25T10:52:30.497Z,64.85
2019-03-25T10:57:35.358Z,64.23
2019-03-25T11:02:40.130Z,62.29
2019-03-25T11:07:44.895Z,59.17
2019-03-25T11:12:49.684Z,56.56
2019-03-25T11:17:54.546Z,56.50
2019-03-25T11:22:59.463Z,52.54
2019-03-25T11:28:04.416Z,53.28
2019-03-25T11:33:09.179Z,55.66
2019-03-25T11:38:14.167Z,56.61
2019-03-25T11:43:19.130Z,61.57
2019-03-25T11:48:24.289Z,65.12
2019-03-25T11:53:29.231Z,65.36
2019-03-25T11:58:34.006Z,59.92
2019-03-25T12:03:38.766Z,54.67
2019-03-25T12:08:44.202Z,48.13
2019-03-25T12:13:49.132Z,44.29
2019-03-25T12:18:53.932Z,41.42
2019-03-25T12:23:58.816Z,40.05
2019-03-25T12:29:03.700Z,42.16
2019-03-25T12:34:08.483Z,43.99
2019-03-25T12:39:13.248Z,47.16
2019-03-25T12:44:18.119Z,49.49
2019-03-25T12:49:22.931Z,53.92
2019-03-25T12:54:27.697Z,56.79
2019-03-25T12:59:40.738Z,51.89
2019-03-25T13:04:38.974Z,45.76
2019-03-25T13:09:43.732Z,45.94
2019-03-25T13:14:48.500Z,49.55
2019-03-25T13:19:53.265Z,49.74
2019-03-25T13:24:58.129Z,41.41
2019-03-25T13:30:02.998Z,40.24
2019-03-25T13:35:08.090Z,41.00
2019-03-25T13:40:13.906Z,41.78
2019-03-25T13:45:18.673Z,46.60
2019-03-25T13:50:23.429Z,52.12
2019-03-25T13:55:28.201Z,58.18
2019-03-25T14:00:38.070Z,64.13
2019-03-25T14:05:42.862Z,66.95
2019-03-25T14:10:47.657Z,67.33
2019-03-25T14:15:52.418Z,67.43
2019-03-25T14:20:57.189Z,67.34
2019-03-25T14:26:01.960Z,67.49
2019-03-25T14:31:06.758Z,68.41
2019-03-25T14:36:11.717Z,67.23
2019-03-25T14:41:16.460Z,61.30
2019-03-25T14:46:21.230Z,60.30
2019-03-25T14:51:26.972Z,60.68
2019-03-25T14:56:31.764Z,62.70
2019-03-25T15:01:36.533Z,64.68
2019-03-25T15:06:41.304Z,66.22
2019-03-25T15:11:46.314Z,66.00
2019-03-25T15:16:51.079Z,65.04
2019-03-25T15:21:55.867Z,63.24
2019-03-25T15:27:00.848Z,64.13
2019-03-25T15:32:05.815Z,61.10
2019-03-25T15:37:10.863Z,59.45
2019-03-25T15:42:15.638Z,58.79
2019-03-25T15:47:20.488Z,56.99
2019-03-25T15:52:25.333Z,56.14
2019-03-25T15:57:30.110Z,56.29
2019-03-25T16:02:34.972Z,56.77
2019-03-25T16:07:39.842Z,56.52
2019-03-25T16:12:44.616Z,57.23
2019-03-25T16:17:49.391Z,57.38
2019-03-25T16:22:54.161Z,57.73
2019-03-25T16:27:59.045Z,57.92
2019-03-25T16:33:03.808Z,58.55
2019-03-25T16:38:08.554Z,57.78
2019-03-25T16:43:13.334Z,58.51
2019-03-25T16:48:18.134Z,59.74
2019-03-25T16:53:22.880Z,60.49
2019-03-25T16:58:27.686Z,60.71
2019-03-25T17:03:32.451Z,60.92
2019-03-25T17:08:37.337Z,61.88
2019-03-25T17:13:42.153Z,61.02
2019-03-25T17:18:47.047Z,61.26
2019-03-25T17:23:51.910Z,60.88
2019-03-25T17:28:56.687Z,60.32
2019-03-25T17:34:01.571Z,60.24
2019-03-25T17:39:09.540Z,59.80
2019-03-25T17:44:14.353Z,59.35
2019-03-25T17:49:19.130Z,59.39
2019-03-25T17:54:24.160Z,58.50
2019-03-25T17:59:28.951Z,58.68
2019-03-25T18:04:33.937Z,58.95
2019-03-25T18:09:38.717Z,58.93
2019-03-25T18:14:43.549Z,58.91
2019-03-25T18:19:48.327Z,58.64
2019-03-25T18:24:53.120Z,58.74
2019-03-25T18:29:58.026Z,58.53
2019-03-25T18:35:02.964Z,57.80
2019-03-25T18:40:08.136Z,57.91
2019-03-25T18:45:13.030Z,57.40
2019-03-25T18:50:17.795Z,57.43
2019-03-25T18:55:22.856Z,56.88
2019-03-25T19:00:34.389Z,57.11
2019-03-25T19:05:39.167Z,57.46
2019-03-25T19:11:30.774Z,56.98
2019-03-25T19:16:27.743Z,57.62
2019-03-25T19:21:32.734Z,57.57
2019-03-25T19:26:37.565Z,57.98
2019-03-25T19:31:42.441Z,57.37
2019-03-25T19:36:47.233Z,59.37
2019-03-25T19:41:52.021Z,58.27
2019-03-25T19:46:56.807Z,58.84
2019-03-25T19:52:01.586Z,59.26
2019-03-25T19:57:06.527Z,59.59
2019-03-25T20:02:18.789Z,60.23
2019-03-25T20:07:18.238Z,60.33
2019-03-25T20:12:23.048Z,60.69
2019-03-25T20:17:27.997Z,61.18
2019-03-25T20:22:32.802Z,61.64
2019-03-25T20:27:37.600Z,61.99
2019-03-25T20:32:42.494Z,62.34
2019-03-25T20:37:47.325Z,62.81
2019-03-25T20:42:52.120Z,63.33
2019-03-25T20:47:57.027Z,63.71
2019-03-25T20:53:01.838Z,64.32
2019-03-25T20:58:06.723Z,64.65
2019-03-25T21:03:11.524Z,65.09
2019-03-25T21:08:16.290Z,65.47
2019-03-25T21:13:21.084Z,66.08
2019-03-25T21:18:25.831Z,66.77
2019-03-25T21:23:30.609Z,66.66
2019-03-25T21:28:35.602Z,67.19
2019-03-25T21:33:40.377Z,67.41
2019-03-25T21:38:45.222Z,67.92
2019-03-25T21:43:49.989Z,67.99
2019-03-25T21:48:54.941Z,68.69
2019-03-25T21:53:59.970Z,68.81
2019-03-25T21:59:04.825Z,68.89
2019-03-25T22:04:09.589Z,69.17
2019-03-25T22:09:14.341Z,69.69
2019-03-25T22:14:19.098Z,70.05
2019-03-25T22:19:24.104Z,70.17
2019-03-25T22:24:28.876Z,70.28
2019-03-25T22:29:33.632Z,70.58
2019-03-25T22:34:38.388Z,71.06
2019-03-25T22:39:43.255Z,71.23
2019-03-25T22:44:48.130Z,71.64
2019-03-25T22:49:52.887Z,71.60
2019-03-25T22:54:57.643Z,71.98
2019-03-25T23:00:02.421Z,72.24
2019-03-25T23:05:07.546Z,72.39
2019-03-25T23:10:12.405Z,72.96
2019-03-25T23:15:17.195Z,72.89
2019-03-25T23:20:22.028Z,73.51
2019-03-25T23:25:26.871Z,73.58
2019-03-25T23:30:31.767Z,73.35
2019-03-25T23:35:36.522Z,73.89
2019-03-25T23:40:41.296Z,74.18
2019-03-25T23:45:46.045Z,74.64
2019-03-25T23:50:50.801Z,74.63
2019-03-25T23:55:55.559Z,75.19
